Archiv-/Tagesdaten

--Timestamp---	Temp	Chill	HIndex	Humid	Dewpt	 Wind 	HiWind	WindDir	Rain 	Barom	Solar	 ET  	 UV 
--------------	----	-----	------	-----	-----	------	------	-------	-----	-----	-----	-----	----
20100717 00:00	24.6	24.6	25.4	73	19.4	3	10	292	0.0	1012.8	0	0.025	0.0
20100717 00:05	24.3	24.3	25.1	74	19.4	5	10	292	0.0	1013.1	0	0.000	0.0
20100717 00:10	24.1	24.1	24.8	74	19.2	6	11	292	0.0	1013.2	0	0.000	0.0
20100717 00:15	23.9	23.9	24.7	73	18.8	3	8	292	0.0	1013.2	0	0.000	0.0
20100717 00:20	23.9	23.9	24.7	73	18.7	3	6	292	0.0	1013.2	0	0.000	0.0
20100717 00:25	23.8	23.8	23.8	72	18.5	0	3	292	0.0	1013.0	0	0.000	0.0
20100717 00:30	23.8	23.8	23.8	73	18.7	0	2	292	0.0	1012.8	0	0.000	0.0
20100717 00:35	23.8	23.8	23.8	73	18.7	0	2	292	0.0	1012.6	0	0.000	0.0
20100717 00:40	23.8	23.8	23.8	73	18.7	0	0	-100000	0.0	1012.6	0	0.000	0.0
20100717 00:45	23.8	23.8	23.8	75	19.1	2	8	292	0.0	1012.7	0	0.000	0.0
20100717 00:50	23.7	23.7	23.7	74	18.7	3	8	292	0.0	1012.5	0	0.000	0.0
20100717 00:55	23.6	23.6	23.6	73	18.4	0	8	270	0.0	1012.3	0	0.000	0.0
20100717 01:00	23.4	23.4	23.4	73	18.3	0	0	-100000	0.0	1012.5	0	0.025	0.0
20100717 01:05	23.4	23.4	23.4	73	18.3	3	10	270	0.0	1012.7	0	0.000	0.0
20100717 01:10	23.4	23.4	23.4	73	18.3	10	16	248	0.0	1012.9	0	0.000	0.0
20100717 01:15	23.3	23.3	23.3	72	17.9	8	16	270	0.0	1012.8	0	0.000	0.0
20100717 01:20	23.2	23.2	23.2	72	17.8	5	8	270	0.0	1012.6	0	0.000	0.0
20100717 01:25	23.1	23.1	23.1	72	17.7	0	5	270	0.0	1012.5	0	0.000	0.0
20100717 01:30	23.1	23.1	23.1	73	17.9	0	2	270	0.0	1012.5	0	0.000	0.0
20100717 01:35	23.1	23.1	23.1	73	17.9	3	8	270	0.0	1012.6	0	0.000	0.0
20100717 01:40	23.1	23.1	23.1	73	17.9	2	5	270	0.0	1012.4	0	0.000	0.0
20100717 01:45	23.1	23.1	23.1	73	17.9	2	6	270	0.0	1012.4	0	0.000	0.0
20100717 01:50	23.1	23.1	23.1	73	17.9	3	8	270	0.0	1012.3	0	0.000	0.0
20100717 01:55	23.1	23.1	23.1	75	18.4	2	8	270	0.0	1011.9	0	0.000	0.0
20100717 02:00	23.1	23.1	23.1	75	18.4	2	6	270	0.0	1012.2	0	0.025	0.0
20100717 02:05	22.9	22.9	22.9	77	18.7	6	11	248	0.0	1012.7	0	0.000	0.0
20100717 02:10	22.9	22.9	22.9	78	18.9	6	16	248	0.0	1013.0	0	0.000	0.0
20100717 02:15	22.9	22.9	22.9	79	19.0	6	16	270	0.0	1013.0	0	0.000	0.0
20100717 02:20	22.9	22.9	22.9	80	19.2	5	10	270	0.0	1013.3	0	0.000	0.0
20100717 02:25	22.8	22.8	22.8	81	19.4	8	14	248	0.0	1013.4	0	0.000	0.0
20100717 02:30	22.8	22.8	22.8	82	19.6	6	11	270	0.0	1013.4	0	0.000	0.0
20100717 02:35	22.8	22.8	22.8	83	19.7	8	16	270	0.0	1013.5	0	0.000	0.0
20100717 02:40	22.7	22.7	22.7	83	19.7	10	19	270	0.0	1013.3	0	0.000	0.0
20100717 02:45	22.7	22.7	22.7	84	19.8	11	19	270	0.0	1013.4	0	0.000	0.0
20100717 02:50	22.6	22.6	22.6	84	19.7	13	24	270	0.0	1013.5	0	0.000	0.0
20100717 02:55	22.4	22.4	22.4	83	19.4	14	26	270	0.0	1014.1	0	0.000	0.0
20100717 03:00	22.2	22.2	22.2	82	19.0	19	34	270	0.4	1014.4	0	0.051	0.0
20100717 03:05	21.6	21.6	21.6	81	18.2	24	45	292	0.4	1014.6	0	0.000	0.0
20100717 03:10	20.6	20.6	20.6	82	17.4	29	51	292	2.2	1014.3	0	0.000	0.0
20100717 03:15	19.5	19.5	19.5	84	16.7	29	55	315	1.4	1014.4	0	0.000	0.0
20100717 03:20	18.9	18.9	18.9	86	16.5	29	47	315	0.2	1015.0	0	0.000	0.0
20100717 03:25	18.7	18.7	18.7	87	16.5	24	39	315	0.0	1015.5	0	0.000	0.0
20100717 03:30	18.7	18.7	18.7	87	16.5	16	29	292	0.2	1015.4	0	0.000	0.0
20100717 03:35	18.8	18.8	18.8	87	16.6	19	47	315	0.0	1015.0	0	0.000	0.0
20100717 03:40	18.8	18.8	18.8	86	16.4	19	35	315	0.0	1015.2	0	0.000	0.0
20100717 03:45	18.9	18.9	18.9	85	16.3	16	39	292	0.0	1015.2	0	0.000	0.0
20100717 03:50	18.9	18.9	18.9	85	16.4	18	29	292	0.0	1015.3	0	0.000	0.0
20100717 03:55	18.9	18.9	18.9	84	16.1	13	24	292	0.2	1015.3	0	0.000	0.0
20100717 04:00	18.8	18.8	18.8	85	16.3	6	14	270	0.0	1015.6	0	0.051	0.0
20100717 04:05	18.7	18.7	18.7	85	16.1	6	16	292	0.2	1015.2	0	0.000	0.0
20100717 04:10	18.7	18.7	18.7	85	16.1	3	11	292	0.2	1015.3	0	0.000	0.0
20100717 04:15	18.7	18.7	18.7	87	16.5	3	11	270	0.0	1015.6	0	0.000	0.0
20100717 04:20	18.6	18.6	18.6	87	16.3	8	14	270	0.0	1015.6	0	0.000	0.0
20100717 04:25	18.5	18.5	18.5	87	16.3	3	10	292	0.0	1015.6	0	0.000	0.0
20100717 04:30	18.4	18.4	18.4	88	16.4	6	11	292	0.0	1015.5	0	0.000	0.0
20100717 04:35	18.3	18.3	18.3	88	16.3	3	8	292	0.2	1015.2	0	0.000	0.0
20100717 04:40	18.3	18.3	18.3	88	16.3	0	3	292	0.0	1015.1	0	0.000	0.0
20100717 04:45	18.2	18.2	18.2	88	16.2	0	0	-100000	0.0	1014.9	0	0.000	0.0
20100717 04:50	18.2	18.2	18.2	89	16.4	2	6	292	0.0	1014.7	0	0.000	0.0
20100717 04:55	18.2	18.2	18.2	89	16.3	5	8	270	0.0	1014.9	0	0.000	0.0
20100717 05:00	18.1	18.1	18.1	90	16.4	3	8	270	0.0	1014.8	0	0.025	0.0
20100717 05:05	18.1	18.1	18.1	90	16.4	3	8	248	0.0	1014.8	0	0.000	0.0
20100717 05:10	18.1	18.1	18.1	90	16.4	2	8	248	0.0	1014.9	0	0.000	0.0
20100717 05:15	18.1	18.1	18.1	90	16.4	2	5	248	0.0	1014.9	0	0.000	0.0
20100717 05:20	18.1	18.1	18.1	90	16.4	2	5	248	0.0	1015.2	0	0.000	0.0
20100717 05:25	18.2	18.2	18.2	90	16.5	3	10	248	0.0	1015.3	0	0.000	0.0
20100717 05:30	18.2	18.2	18.2	90	16.5	5	11	225	0.0	1015.5	0	0.000	0.0
20100717 05:35	18.2	18.2	18.2	90	16.5	8	16	225	0.0	1015.7	0	0.000	0.0
20100717 05:40	18.1	18.1	18.1	90	16.4	6	13	225	0.0	1015.7	0	0.000	0.0
20100717 05:45	18.1	18.1	18.1	90	16.4	5	11	202	0.0	1015.8	0	0.000	0.0
20100717 05:50	18.1	18.1	18.1	90	16.4	3	8	202	0.0	1015.8	0	0.000	0.0
20100717 05:55	18.1	18.1	18.1	90	16.4	2	5	225	0.0	1016.0	0	0.000	0.0
20100717 06:00	18.1	18.1	18.1	90	16.4	2	5	248	0.0	1015.8	3	0.000	0.0
20100717 06:05	18.1	18.1	18.1	91	16.6	2	8	202	0.0	1015.7	6	0.000	0.0
20100717 06:10	18.0	18.0	18.0	90	16.3	2	6	202	0.0	1015.6	8	0.000	0.0
20100717 06:15	17.9	17.9	17.9	91	16.5	5	8	202	0.0	1015.4	10	0.000	0.0
20100717 06:20	17.9	17.9	17.9	91	16.4	5	8	225	0.0	1015.5	11	0.000	0.0
20100717 06:25	17.8	17.8	17.8	91	16.3	5	10	225	0.0	1015.5	12	0.000	0.0
20100717 06:30	17.8	17.8	17.8	91	16.3	5	10	202	0.0	1015.4	13	0.000	0.0
20100717 06:35	17.8	17.8	17.8	91	16.3	3	6	202	0.0	1015.3	14	0.000	0.0
20100717 06:40	17.8	17.8	17.8	91	16.3	5	10	180	0.0	1015.4	17	0.000	0.0
20100717 06:45	17.8	17.8	17.8	91	16.3	3	8	180	0.0	1015.5	21	0.000	0.0
20100717 06:50	17.8	17.8	17.8	91	16.3	5	10	202	0.0	1015.3	26	0.000	0.0
20100717 06:55	17.8	17.8	17.8	91	16.3	6	11	202	0.0	1015.3	25	0.000	0.0
20100717 07:00	17.8	17.8	17.8	91	16.3	3	10	202	0.0	1015.5	28	0.025	0.0
20100717 07:05	17.9	17.9	17.9	91	16.4	3	8	202	0.0	1015.5	37	0.000	0.0
20100717 07:10	17.9	17.9	17.9	92	16.6	3	8	202	0.0	1015.5	46	0.000	0.0
20100717 07:15	18.0	18.0	18.0	92	16.7	2	6	202	0.0	1015.6	56	0.000	0.0
20100717 07:20	18.0	18.0	18.0	92	16.7	2	6	225	0.0	1015.8	58	0.000	0.0
20100717 07:25	18.1	18.1	18.1	92	16.7	2	6	225	0.0	1015.8	75	0.000	0.3
20100717 07:30	18.2	18.2	18.2	92	16.8	0	5	225	0.0	1016.0	158	0.000	0.5
20100717 07:35	18.4	18.4	18.4	92	17.1	0	0	-100000	0.0	1016.0	208	0.000	0.6
20100717 07:40	18.7	18.7	18.7	92	17.4	0	5	225	0.0	1015.8	221	0.000	0.6
20100717 07:45	18.9	18.9	18.9	92	17.6	3	10	225	0.0	1015.6	225	0.000	0.6
20100717 07:50	19.2	19.2	19.2	91	17.7	3	8	248	0.0	1015.6	216	0.000	0.7
20100717 07:55	19.3	19.3	19.3	90	17.6	2	6	248	0.0	1015.5	178	0.000	0.8
20100717 08:00	19.4	19.4	19.4	90	17.8	3	6	248	0.0	1015.4	163	0.076	0.8
20100717 08:05	19.6	19.6	19.6	89	17.7	2	8	248	0.0	1015.5	161	0.000	0.8
20100717 08:10	19.7	19.7	19.7	89	17.9	3	8	248	0.0	1015.5	177	0.000	0.9
20100717 08:15	19.9	19.9	19.9	88	17.9	5	8	248	0.0	1015.5	324	0.000	1.1
20100717 08:20	20.2	20.2	20.2	86	17.7	6	10	202	0.0	1015.5	301	0.000	1.2
20100717 08:25	20.4	20.4	20.4	86	18.0	3	6	225	0.0	1015.5	446	0.000	1.3
20100717 08:30	20.8	20.8	20.8	85	18.2	2	6	225	0.0	1015.6	439	0.000	1.4
20100717 08:35	21.0	21.0	21.0	84	18.2	3	8	225	0.0	1015.5	296	0.000	1.4
20100717 08:40	21.3	21.3	21.3	83	18.3	2	8	180	0.0	1015.5	420	0.000	1.6
20100717 08:45	21.5	21.5	21.5	81	18.1	3	6	180	0.0	1015.3	386	0.000	1.6
20100717 08:50	21.7	21.7	21.7	79	17.9	5	11	180	0.0	1015.4	315	0.000	1.7
20100717 08:55	21.8	21.8	21.8	80	18.2	5	8	202	0.0	1015.5	354	0.000	1.7
20100717 09:00	21.8	21.8	21.8	78	17.8	2	6	202	0.0	1015.5	271	0.203	1.8
20100717 09:05	21.9	21.9	21.9	75	17.3	2	6	202	0.0	1015.8	277	0.000	1.8
20100717 09:10	22.0	22.0	22.0	77	17.8	2	8	248	0.0	1015.7	270	0.000	1.8
20100717 09:15	22.1	22.1	22.1	76	17.6	3	8	248	0.0	1015.8	246	0.000	1.7
20100717 09:20	22.2	22.2	22.2	76	17.7	3	8	248	0.0	1015.9	248	0.000	1.7
20100717 09:25	22.2	22.2	22.2	77	18.0	3	8	248	0.0	1015.9	255	0.000	1.7
20100717 09:30	22.3	22.3	22.3	78	18.3	3	6	292	0.0	1015.8	233	0.000	1.8
20100717 09:35	22.3	22.3	22.3	79	18.5	2	6	292	0.0	1015.8	243	0.000	1.9
20100717 09:40	22.3	22.3	22.3	79	18.5	2	6	292	0.0	1015.9	261	0.000	2.1
20100717 09:45	22.4	22.4	22.4	78	18.4	2	5	292	0.0	1015.9	320	0.000	2.5
20100717 09:50	22.4	22.4	22.4	78	18.4	2	6	292	0.0	1015.9	305	0.000	2.7
20100717 09:55	22.6	22.6	22.6	78	18.5	3	6	292	0.0	1015.8	728	0.000	3.6
20100717 10:00	22.9	22.9	22.9	78	18.8	5	10	292	0.0	1015.9	674	0.203	4.0
20100717 10:05	23.2	23.2	23.2	76	18.7	3	6	292	0.0	1015.9	655	0.000	4.2
20100717 10:10	23.4	23.4	23.4	75	18.8	3	8	292	0.0	1015.9	685	0.000	4.4
20100717 10:15	23.7	23.7	23.7	74	18.7	3	11	270	0.0	1015.8	702	0.000	4.6
20100717 10:20	23.8	23.8	23.8	71	18.2	5	11	270	0.0	1015.8	730	0.000	4.8
20100717 10:25	23.9	23.9	24.9	70	18.1	6	11	292	0.0	1015.8	765	0.000	5.2
20100717 10:30	24.3	24.3	25.3	68	18.0	3	10	292	0.0	1015.7	867	0.000	5.5
20100717 10:35	24.6	24.6	25.6	65	17.6	5	8	315	0.0	1015.8	817	0.000	5.4
20100717 10:40	25.0	25.0	26.0	67	18.4	3	10	292	0.0	1015.6	808	0.000	5.5
20100717 10:45	25.3	25.3	26.3	62	17.5	5	10	22	0.0	1015.6	841	0.000	5.8
20100717 10:50	25.4	25.4	26.4	63	17.9	2	5	22	0.0	1015.8	794	0.000	5.9
20100717 10:55	25.3	25.3	26.3	61	17.3	3	8	315	0.0	1015.8	729	0.000	5.6
20100717 11:00	25.3	25.3	26.3	63	17.7	2	6	315	0.0	1015.6	638	0.483	5.7
20100717 11:05	25.1	25.1	26.1	60	16.8	2	6	22	0.0	1016.1	827	0.000	5.7
20100717 11:10	25.1	25.1	26.1	64	17.8	3	11	315	0.0	1016.3	443	0.000	5.1
20100717 11:15	25.1	25.1	26.1	65	18.1	6	16	315	0.0	1016.2	382	0.000	4.3
20100717 11:20	25.3	25.3	26.3	63	17.7	2	8	315	0.0	1016.1	780	0.000	5.8
20100717 11:25	25.5	25.5	26.5	65	18.4	5	11	315	0.0	1016.1	518	0.000	5.2
20100717 11:30	25.4	25.4	26.4	62	17.6	5	11	315	0.0	1016.0	401	0.000	4.6
20100717 11:35	25.3	25.3	26.3	63	17.7	3	8	315	0.0	1015.8	359	0.000	3.9
20100717 11:40	25.3	25.3	26.3	62	17.5	2	6	338	0.0	1015.7	426	0.000	4.4
20100717 11:45	25.4	25.4	26.4	62	17.6	3	10	315	0.0	1015.7	520	0.000	5.4
20100717 11:50	25.6	25.6	26.5	60	17.3	2	8	315	0.0	1015.7	392	0.000	4.1
20100717 11:55	25.5	25.5	26.5	64	18.2	6	18	315	0.0	1015.8	337	0.000	3.9
20100717 12:00	24.9	24.9	25.9	66	18.1	10	19	315	0.0	1015.9	455	0.356	4.7
20100717 12:05	24.6	24.6	25.6	66	17.8	8	16	315	0.0	1016.1	299	0.000	3.5
20100717 12:10	24.3	24.3	25.3	68	18.0	8	14	315	0.0	1016.2	263	0.000	3.0
20100717 12:15	24.0	24.0	24.9	70	18.2	10	18	315	0.0	1016.4	262	0.000	3.0
20100717 12:20	23.9	23.9	24.8	71	18.3	6	14	292	0.0	1016.3	274	0.000	3.0
20100717 12:25	23.9	23.9	24.8	70	18.1	6	14	315	0.0	1016.2	336	0.000	3.8
20100717 12:30	23.9	23.9	24.9	70	18.1	6	14	315	0.0	1016.3	364	0.000	3.8
20100717 12:35	24.1	24.1	25.0	70	18.3	6	16	315	0.0	1016.3	430	0.000	4.7
20100717 12:40	24.3	24.3	25.2	70	18.4	8	16	292	0.0	1016.2	388	0.000	3.9
20100717 12:45	24.4	24.4	25.4	68	18.1	3	14	315	0.0	1016.1	267	0.000	2.9
20100717 12:50	24.4	24.4	25.4	68	18.1	3	11	315	0.0	1016.1	227	0.000	2.4
20100717 12:55	24.3	24.3	25.3	69	18.3	2	6	315	0.0	1016.1	184	0.000	1.9
20100717 13:00	24.2	24.2	25.1	70	18.3	5	11	315	0.0	1016.2	208	0.229	2.1
20100717 13:05	24.0	24.0	24.8	72	18.6	5	10	315	0.0	1016.2	309	0.000	3.3
20100717 13:10	24.1	24.1	24.8	73	18.9	3	11	315	0.0	1016.2	312	0.000	3.4
20100717 13:15	23.9	23.9	25.0	68	17.7	8	16	292	0.0	1016.4	290	0.000	3.2
20100717 13:20	23.9	23.9	24.7	72	18.5	0	5	292	0.0	1016.3	355	0.000	3.8
20100717 13:25	24.1	24.1	24.8	73	18.9	2	6	338	0.0	1016.3	386	0.000	4.3
20100717 13:30	24.3	24.3	25.1	73	19.2	3	8	292	0.0	1016.1	515	0.000	4.8
20100717 13:35	24.6	24.6	25.5	72	19.2	3	11	315	0.0	1016.0	794	0.000	6.5
20100717 13:40	24.9	24.9	25.9	68	18.6	2	10	338	0.0	1016.0	477	0.000	6.3
20100717 13:45	25.1	25.1	26.1	66	18.2	5	13	315	0.0	1016.1	435	0.000	4.8
20100717 13:50	25.1	25.1	26.1	68	18.7	6	11	315	0.0	1016.0	347	0.000	4.1
20100717 13:55	24.9	24.9	25.9	69	18.9	3	10	315	0.0	1016.0	303	0.000	3.4
20100717 14:00	24.8	24.8	25.7	70	18.9	3	10	292	0.0	1016.0	279	0.279	3.2
20100717 14:05	24.7	24.7	25.6	69	18.6	3	8	315	0.0	1016.1	269	0.000	3.0
20100717 14:10	24.6	24.6	25.5	71	18.9	3	8	315	0.0	1016.0	302	0.000	3.3
20100717 14:15	24.6	24.6	25.5	70	18.7	3	8	22	0.0	1016.0	341	0.000	3.8
20100717 14:20	24.7	24.7	25.6	70	18.8	3	10	22	0.0	1015.9	453	0.000	5.0
20100717 14:25	24.8	24.8	25.8	69	18.7	5	10	22	0.0	1015.9	498	0.000	5.3
20100717 14:30	25.0	25.0	26.0	69	18.9	5	10	22	0.0	1015.7	599	0.000	5.5
20100717 14:35	25.3	25.3	26.3	68	18.9	2	10	22	0.0	1015.7	316	0.000	3.7
20100717 14:40	25.3	25.3	26.4	68	19.0	3	8	292	0.0	1015.5	273	0.000	3.0
20100717 14:45	25.2	25.2	26.2	68	18.8	3	10	22	0.0	1015.6	206	0.000	2.2
20100717 14:50	24.9	24.9	25.9	68	18.6	6	14	22	0.0	1015.6	188	0.000	1.9
20100717 14:55	24.8	24.8	25.8	70	19.0	2	11	22	0.0	1015.6	162	0.000	1.6
20100717 15:00	24.8	24.8	25.8	70	19.0	2	6	22	0.0	1015.7	133	0.229	1.3
20100717 15:05	24.8	24.8	25.8	69	18.7	2	11	22	0.0	1015.9	149	0.000	1.4
20100717 15:10	24.9	24.9	25.9	69	18.8	3	11	338	0.0	1016.0	141	0.000	1.3
20100717 15:15	24.9	24.9	25.9	68	18.6	2	10	292	0.0	1016.1	139	0.000	1.3
20100717 15:20	24.8	24.8	25.8	68	18.5	5	16	292	0.0	1016.2	142	0.000	1.3
20100717 15:25	24.6	24.6	25.5	68	18.2	10	23	315	0.0	1016.3	118	0.000	1.0
20100717 15:30	24.4	24.4	25.3	69	18.3	3	10	292	0.0	1016.3	104	0.000	0.9
20100717 15:35	24.3	24.3	25.2	71	18.7	0	8	22	0.0	1016.2	95	0.000	0.8
20100717 15:40	24.3	24.3	25.2	71	18.7	0	3	0	0.0	1016.2	90	0.000	0.7
20100717 15:45	24.1	24.1	24.9	72	18.7	2	6	22	0.0	1016.2	87	0.000	0.7
20100717 15:50	24.1	24.1	24.9	71	18.5	0	6	0	0.0	1016.3	90	0.000	0.7
20100717 15:55	24.0	24.0	24.8	72	18.6	0	5	292	0.0	1016.2	112	0.000	0.9
20100717 16:00	24.0	24.0	24.9	71	18.4	0	2	292	0.0	1016.0	173	0.102	1.4
20100717 16:05	24.1	24.1	24.9	72	18.7	2	5	315	0.0	1015.9	410	0.000	3.0
20100717 16:10	24.5	24.5	25.4	70	18.7	3	10	0	0.0	1015.8	566	0.000	3.9
20100717 16:15	24.8	24.8	25.8	65	17.8	5	11	22	0.0	1015.6	348	0.000	3.0
20100717 16:20	24.9	24.9	25.9	64	17.6	2	10	315	0.0	1015.5	300	0.000	2.6
20100717 16:25	24.9	24.9	25.9	64	17.7	3	11	22	0.0	1015.5	395	0.000	2.8
20100717 16:30	25.2	25.2	26.2	64	17.9	3	14	292	0.0	1015.5	405	0.000	2.8
20100717 16:35	25.2	25.2	26.2	63	17.7	5	18	292	0.0	1015.6	283	0.000	2.1
20100717 16:40	25.1	25.1	26.1	63	17.5	10	18	292	0.0	1015.9	175	0.000	1.4
20100717 16:45	24.8	24.8	25.8	65	17.8	5	14	315	0.0	1015.9	143	0.000	1.1
20100717 16:50	24.6	24.6	25.6	64	17.3	5	11	315	0.0	1016.1	110	0.000	0.8
20100717 16:55	24.4	24.4	25.5	65	17.4	3	8	315	0.0	1016.2	93	0.000	0.7
20100717 17:00	24.3	24.3	25.4	63	16.8	5	13	315	0.0	1016.2	79	0.203	0.6
20100717 17:05	24.2	24.2	25.3	63	16.7	3	10	315	0.0	1016.1	65	0.000	0.5
20100717 17:10	24.1	24.1	25.2	64	16.8	3	10	315	0.0	1016.1	57	0.000	0.0
20100717 17:15	23.9	23.9	25.1	65	17.0	2	6	315	0.0	1016.0	48	0.000	0.0
20100717 17:20	23.8	23.8	23.8	65	16.8	0	3	315	0.0	1015.9	49	0.000	0.0
20100717 17:25	23.8	23.8	23.8	65	16.8	2	6	315	0.0	1015.9	41	0.000	0.0
20100717 17:30	23.7	23.7	23.7	64	16.4	2	6	315	0.0	1015.9	30	0.000	0.0
20100717 17:35	23.6	23.6	23.6	64	16.3	2	5	315	0.0	1015.7	25	0.000	0.0
20100717 17:40	23.6	23.6	23.6	66	16.8	0	0	-100000	0.0	1015.9	25	0.000	0.0
20100717 17:45	23.4	23.4	23.4	66	16.7	0	0	-100000	0.0	1016.0	35	0.000	0.0
20100717 17:50	23.4	23.4	23.4	66	16.7	0	2	315	0.0	1016.0	51	0.000	0.0
20100717 17:55	23.4	23.4	23.4	68	17.1	0	0	-100000	0.0	1016.0	60	0.000	0.0
20100717 18:00	23.3	23.3	23.3	69	17.3	2	6	315	0.0	1015.9	66	0.051	0.0
20100717 18:05	23.1	23.1	23.1	70	17.3	3	8	315	0.2	1015.9	61	0.000	0.0
20100717 18:10	22.8	22.8	22.8	72	17.5	2	6	315	0.0	1016.0	50	0.000	0.0
20100717 18:15	22.6	22.6	22.6	75	17.9	0	5	315	0.0	1016.0	38	0.000	0.0
20100717 18:20	22.3	22.3	22.3	76	17.8	3	8	315	0.0	1015.9	26	0.000	0.0
20100717 18:25	21.9	21.9	21.9	77	17.7	6	16	315	0.0	1015.6	20	0.000	0.0
20100717 18:30	21.6	21.6	21.6	78	17.6	8	21	315	0.0	1015.8	25	0.000	0.0
20100717 18:35	21.1	21.1	21.1	80	17.5	8	21	315	0.0	1015.7	40	0.000	0.0
20100717 18:40	20.8	20.8	20.8	81	17.4	3	19	22	0.0	1015.9	44	0.000	0.0
20100717 18:45	20.3	20.3	20.3	82	17.2	6	18	22	0.2	1016.3	30	0.000	0.0
20100717 18:50	19.9	19.9	19.9	84	17.2	5	18	22	0.0	1016.4	27	0.000	0.0
20100717 18:55	19.5	19.5	19.5	85	16.9	10	24	22	0.0	1016.4	49	0.000	0.0
20100717 19:00	19.2	19.2	19.2	85	16.6	11	27	22	0.2	1016.6	52	0.051	0.0
20100717 19:05	19.2	19.2	19.2	86	16.8	5	16	0	0.0	1016.3	29	0.000	0.0
20100717 19:10	19.0	19.0	19.0	86	16.6	5	16	0	0.0	1016.3	23	0.000	0.0
20100717 19:15	18.9	18.9	18.9	85	16.3	8	23	0	0.0	1016.5	18	0.000	0.0
20100717 19:20	18.7	18.7	18.7	85	16.1	5	27	0	0.0	1016.8	10	0.000	0.0
20100717 19:25	18.7	18.7	18.7	86	16.3	6	18	292	0.0	1017.3	1	0.000	0.0
20100717 19:30	18.6	18.6	18.6	86	16.2	13	23	315	0.0	1017.7	0	0.000	0.0
20100717 19:35	18.5	18.5	18.5	86	16.1	19	31	315	0.0	1017.7	0	0.000	0.0
20100717 19:40	18.4	18.4	18.4	87	16.2	16	26	315	1.0	1017.6	0	0.000	0.0
20100717 19:45	18.2	18.2	18.2	88	16.2	19	29	315	1.6	1017.5	0	0.000	0.0
20100717 19:50	17.9	17.9	17.9	89	16.1	19	34	315	1.0	1017.8	0	0.000	0.0
20100717 19:55	17.8	17.8	17.8	89	15.9	21	32	315	1.2	1018.2	0	0.000	0.0
20100717 20:00	17.7	17.7	17.7	90	16.0	14	24	315	0.6	1018.2	0	0.025	0.0
20100717 20:05	17.7	17.7	17.7	91	16.2	13	24	315	0.4	1018.2	0	0.000	0.0
20100717 20:10	17.6	17.6	17.6	90	15.9	18	29	315	0.4	1018.3	0	0.000	0.0
20100717 20:15	17.4	17.4	17.4	90	15.8	14	27	315	0.4	1018.5	0	0.000	0.0
20100717 20:20	17.2	17.2	17.2	90	15.6	10	24	315	0.2	1018.8	0	0.000	0.0
20100717 20:25	17.1	17.1	17.1	90	15.4	16	29	315	0.4	1019.1	0	0.000	0.0
20100717 20:30	16.4	16.4	16.4	87	14.3	16	31	315	0.4	1019.2	0	0.000	0.0
20100717 20:35	15.8	15.8	15.8	86	13.4	6	18	315	0.6	1019.3	0	0.000	0.0
20100717 20:40	15.3	15.3	15.3	87	13.1	5	14	292	0.4	1019.6	0	0.000	0.0
20100717 20:45	15.0	15.0	15.0	87	12.9	6	21	315	0.2	1019.7	0	0.000	0.0
20100717 20:50	14.6	14.6	14.6	87	12.5	6	26	315	0.4	1019.9	0	0.000	0.0
20100717 20:55	14.3	14.3	14.3	88	12.3	10	18	315	0.2	1020.2	0	0.000	0.0
20100717 21:00	14.1	14.1	14.1	89	12.3	10	23	315	0.4	1020.5	0	0.025	0.0
20100717 21:05	14.1	14.1	14.1	89	12.3	8	18	315	0.2	1020.5	0	0.000	0.0
20100717 21:10	14.1	14.1	14.1	90	12.4	10	21	315	0.4	1020.7	0	0.000	0.0
20100717 21:15	14.2	14.2	14.2	90	12.5	10	18	315	0.4	1020.8	0	0.000	0.0
20100717 21:20	14.3	14.3	14.3	91	12.8	6	24	315	0.4	1020.8	0	0.000	0.0
20100717 21:25	14.4	14.4	14.4	91	13.0	10	19	315	0.4	1020.8	0	0.000	0.0
20100717 21:30	14.4	14.4	14.4	91	12.9	13	26	315	0.6	1020.8	0	0.000	0.0
20100717 21:35	14.3	14.3	14.3	91	12.8	10	23	315	0.6	1021.0	0	0.000	0.0
20100717 21:40	14.2	14.2	14.2	91	12.7	6	24	315	0.4	1021.0	0	0.000	0.0
20100717 21:45	14.1	14.1	14.1	91	12.7	3	13	315	0.4	1021.1	0	0.000	0.0
20100717 21:50	14.1	14.1	14.1	91	12.7	10	21	315	0.6	1021.6	0	0.000	0.0
20100717 21:55	14.0	14.0	14.0	91	12.6	11	23	315	0.6	1021.6	0	0.000	0.0
20100717 22:00	14.0	14.0	14.0	91	12.6	8	16	292	0.4	1021.7	0	0.025	0.0
20100717 22:05	14.0	14.0	14.0	92	12.7	8	18	292	0.4	1021.7	0	0.000	0.0
20100717 22:10	13.9	13.9	13.9	92	12.7	8	16	270	0.4	1021.7	0	0.000	0.0
20100717 22:15	13.8	13.8	13.8	92	12.6	8	16	292	0.2	1021.8	0	0.000	0.0
20100717 22:20	13.8	13.8	13.8	92	12.5	8	16	270	0.4	1021.8	0	0.000	0.0
20100717 22:25	13.7	13.7	13.7	92	12.4	8	16	292	0.4	1021.8	0	0.000	0.0
20100717 22:30	13.7	13.7	13.7	92	12.4	11	21	292	0.4	1021.9	0	0.000	0.0
20100717 22:35	13.6	13.6	13.6	92	12.3	11	18	292	0.2	1021.9	0	0.000	0.0
20100717 22:40	13.5	13.5	13.5	92	12.2	13	23	270	0.2	1022.0	0	0.000	0.0
20100717 22:45	13.5	13.5	13.5	92	12.2	11	21	292	0.2	1022.0	0	0.000	0.0
20100717 22:50	13.5	13.5	13.5	92	12.2	13	19	270	0.2	1022.2	0	0.000	0.0
20100717 22:55	13.5	13.5	13.5	92	12.2	11	19	270	0.2	1022.4	0	0.000	0.0
20100717 23:00	13.4	13.4	13.4	92	12.2	11	21	270	0.4	1022.5	0	0.025	0.0
20100717 23:05	13.4	13.4	13.4	92	12.2	13	23	270	0.2	1022.8	0	0.000	0.0
20100717 23:10	13.4	13.4	13.4	92	12.2	11	18	270	0.4	1022.9	0	0.000	0.0
20100717 23:15	13.5	13.5	13.5	93	12.4	10	18	248	0.2	1022.8	0	0.000	0.0
20100717 23:20	13.6	13.6	13.6	93	12.5	10	19	248	0.4	1023.0	0	0.000	0.0
20100717 23:25	13.7	13.7	13.7	93	12.6	10	19	248	0.2	1023.0	0	0.000	0.0
20100717 23:30	13.7	13.7	13.7	93	12.6	11	18	248	0.4	1023.1	0	0.000	0.0
20100717 23:35	13.8	13.8	13.8	93	12.7	11	23	248	0.4	1023.1	0	0.000	0.0
20100717 23:40	13.8	13.8	13.8	93	12.7	11	24	248	0.4	1023.1	0	0.000	0.0
20100717 23:45	13.7	13.7	13.7	93	12.6	13	23	248	0.2	1023.3	0	0.000	0.0
20100717 23:50	13.6	13.6	13.6	93	12.4	11	21	270	0.2	1023.6	0	0.000	0.0
20100717 23:55	13.4	13.4	13.4	93	12.3	11	21	270	0.2	1023.7	0	0.000	0.0



Please note the license to use and transfer of this data:
http://creativecommons.org/licenses/by-nc-sa/3.0/deed.en

Bitte beachten sie die Lizenz zur Verwertung und Weitergabe der Daten:
http://creativecommons.org/licenses/by-nc-sa/3.0/deed.de

zurück zur Übersicht der Archivdaten (Monats und Tagesdaten)

Cookies helfen bei der Bereitstellung von Inhalten. Durch die Nutzung dieser Seiten erklärst du dich damit einverstanden, dass Cookies auf deinem Rechner gespeichert werden. Weitere Information